sensor_id;sensor_type;location;lat;lon;timestamp;temperature;humidity
17795;DHT22;9021;50.882;4.326;2023-09-30T00:02:20;15.40;99.90
17795;DHT22;9021;50.882;4.326;2023-09-30T00:04:46;15.40;99.90
17795;DHT22;9021;50.882;4.326;2023-09-30T00:07:11;15.40;99.90
17795;DHT22;9021;50.882;4.326;2023-09-30T00:09:37;15.30;99.90
17795;DHT22;9021;50.882;4.326;2023-09-30T00:12:02;15.30;99.90
17795;DHT22;9021;50.882;4.326;2023-09-30T00:14:28;15.30;99.90
17795;DHT22;9021;50.882;4.326;2023-09-30T00:16:54;15.40;99.90
17795;DHT22;9021;50.882;4.326;2023-09-30T00:19:20;15.40;99.90
17795;DHT22;9021;50.882;4.326;2023-09-30T00:21:48;15.40;99.90
17795;DHT22;9021;50.882;4.326;2023-09-30T00:24:13;15.30;99.90
17795;DHT22;9021;50.882;4.326;2023-09-30T00:26:39;15.20;99.90
17795;DHT22;9021;50.882;4.326;2023-09-30T00:29:05;15.10;99.90
17795;DHT22;9021;50.882;4.326;2023-09-30T00:31:30;15.20;99.90
17795;DHT22;9021;50.882;4.326;2023-09-30T00:33:56;15.20;99.90
17795;DHT22;9021;50.882;4.326;2023-09-30T00:36:22;15.30;99.90
17795;DHT22;9021;50.882;4.326;2023-09-30T00:38:47;15.20;99.90
17795;DHT22;9021;50.882;4.326;2023-09-30T00:41:13;15.10;99.90
17795;DHT22;9021;50.882;4.326;2023-09-30T00:43:39;15.00;99.90
17795;DHT22;9021;50.882;4.326;2023-09-30T00:49:06;15.10;99.90
17795;DHT22;9021;50.882;4.326;2023-09-30T00:51:32;15.10;99.90
17795;DHT22;9021;50.882;4.326;2023-09-30T00:53:59;15.20;99.90
17795;DHT22;9021;50.882;4.326;2023-09-30T00:56:25;15.00;99.90
17795;DHT22;9021;50.882;4.326;2023-09-30T00:58:51;15.00;99.90
17795;DHT22;9021;50.882;4.326;2023-09-30T01:01:22;15.00;99.90
17795;DHT22;9021;50.882;4.326;2023-09-30T01:03:47;15.10;99.90
17795;DHT22;9021;50.882;4.326;2023-09-30T01:06:13;13.80;99.90
17795;DHT22;9021;50.882;4.326;2023-09-30T01:08:39;15.10;99.90
17795;DHT22;9021;50.882;4.326;2023-09-30T01:11:05;14.70;99.90
17795;DHT22;9021;50.882;4.326;2023-09-30T01:13:34;15.10;99.90
17795;DHT22;9021;50.882;4.326;2023-09-30T01:16:06;15.10;99.90
17795;DHT22;9021;50.882;4.326;2023-09-30T01:18:32;15.10;99.90
17795;DHT22;9021;50.882;4.326;2023-09-30T01:20:59;15.20;99.90
17795;DHT22;9021;50.882;4.326;2023-09-30T01:23:29;15.20;99.90
17795;DHT22;9021;50.882;4.326;2023-09-30T01:25:54;15.10;99.90
17795;DHT22;9021;50.882;4.326;2023-09-30T01:28:20;15.10;99.90
17795;DHT22;9021;50.882;4.326;2023-09-30T01:30:45;15.10;99.90
17795;DHT22;9021;50.882;4.326;2023-09-30T01:33:11;15.20;99.90
17795;DHT22;9021;50.882;4.326;2023-09-30T01:35:36;15.20;99.90
17795;DHT22;9021;50.882;4.326;2023-09-30T01:38:02;15.20;99.90
17795;DHT22;9021;50.882;4.326;2023-09-30T01:40:27;15.10;99.90
17795;DHT22;9021;50.882;4.326;2023-09-30T01:42:53;15.10;99.90
17795;DHT22;9021;50.882;4.326;2023-09-30T01:45:19;15.10;99.90
17795;DHT22;9021;50.882;4.326;2023-09-30T01:47:44;15.10;99.90
17795;DHT22;9021;50.882;4.326;2023-09-30T01:50:10;15.00;99.90
17795;DHT22;9021;50.882;4.326;2023-09-30T01:52:35;14.90;99.90
17795;DHT22;9021;50.882;4.326;2023-09-30T01:55:01;14.90;99.90
17795;DHT22;9021;50.882;4.326;2023-09-30T01:57:26;15.00;99.90
17795;DHT22;9021;50.882;4.326;2023-09-30T01:59:52;15.10;99.90
17795;DHT22;9021;50.882;4.326;2023-09-30T02:02:17;15.00;99.90
17795;DHT22;9021;50.882;4.326;2023-09-30T02:04:44;14.90;99.90
17795;DHT22;9021;50.882;4.326;2023-09-30T02:07:09;15.50;99.90
17795;DHT22;9021;50.882;4.326;2023-09-30T02:09:35;14.70;99.90
17795;DHT22;9021;50.882;4.326;2023-09-30T02:12:01;14.70;99.90
17795;DHT22;9021;50.882;4.326;2023-09-30T02:14:27;14.70;99.90
17795;DHT22;9021;50.882;4.326;2023-09-30T02:16:53;14.80;99.90
17795;DHT22;9021;50.882;4.326;2023-09-30T02:19:19;14.80;99.90
17795;DHT22;9021;50.882;4.326;2023-09-30T02:21:45;14.70;99.90
17795;DHT22;9021;50.882;4.326;2023-09-30T02:24:10;14.70;99.90
17795;DHT22;9021;50.882;4.326;2023-09-30T02:26:36;14.70;99.90
17795;DHT22;9021;50.882;4.326;2023-09-30T02:29:03;14.60;99.90
17795;DHT22;9021;50.882;4.326;2023-09-30T02:31:30;14.60;99.90
17795;DHT22;9021;50.882;4.326;2023-09-30T02:33:55;14.60;99.90
17795;DHT22;9021;50.882;4.326;2023-09-30T02:36:21;14.60;99.90
17795;DHT22;9021;50.882;4.326;2023-09-30T02:38:46;14.60;99.90
17795;DHT22;9021;50.882;4.326;2023-09-30T02:41:12;14.70;99.90
17795;DHT22;9021;50.882;4.326;2023-09-30T02:43:37;14.70;99.90
17795;DHT22;9021;50.882;4.326;2023-09-30T02:46:03;14.70;99.90
17795;DHT22;9021;50.882;4.326;2023-09-30T02:48:29;14.60;99.90
17795;DHT22;9021;50.882;4.326;2023-09-30T02:50:54;14.70;99.90
17795;DHT22;9021;50.882;4.326;2023-09-30T02:53:20;14.60;99.90
17795;DHT22;9021;50.882;4.326;2023-09-30T02:55:46;14.70;99.90
17795;DHT22;9021;50.882;4.326;2023-09-30T02:58:11;14.60;99.90
17795;DHT22;9021;50.882;4.326;2023-09-30T03:00:37;14.50;99.90
17795;DHT22;9021;50.882;4.326;2023-09-30T03:03:03;14.50;99.90
17795;DHT22;9021;50.882;4.326;2023-09-30T03:05:29;14.50;99.90
17795;DHT22;9021;50.882;4.326;2023-09-30T03:07:57;14.60;99.90
17795;DHT22;9021;50.882;4.326;2023-09-30T03:10:29;14.60;99.90
17795;DHT22;9021;50.882;4.326;2023-09-30T03:12:55;14.60;99.90
17795;DHT22;9021;50.882;4.326;2023-09-30T03:15:20;14.60;99.90
17795;DHT22;9021;50.882;4.326;2023-09-30T03:17:46;14.60;99.90
17795;DHT22;9021;50.882;4.326;2023-09-30T03:20:11;14.60;99.90
17795;DHT22;9021;50.882;4.326;2023-09-30T03:22:41;14.30;99.90
17795;DHT22;9021;50.882;4.326;2023-09-30T03:25:12;14.60;99.90
17795;DHT22;9021;50.882;4.326;2023-09-30T03:27:40;14.60;99.90
17795;DHT22;9021;50.882;4.326;2023-09-30T03:30:06;14.60;99.90
17795;DHT22;9021;50.882;4.326;2023-09-30T03:32:32;14.90;99.90
17795;DHT22;9021;50.882;4.326;2023-09-30T03:34:59;14.60;99.90
17795;DHT22;9021;50.882;4.326;2023-09-30T03:37:26;14.40;99.90
17795;DHT22;9021;50.882;4.326;2023-09-30T03:39:55;14.20;99.90
17795;DHT22;9021;50.882;4.326;2023-09-30T03:42:20;14.30;99.90
17795;DHT22;9021;50.882;4.326;2023-09-30T03:44:46;14.40;99.90
17795;DHT22;9021;50.882;4.326;2023-09-30T03:47:14;14.50;99.90
17795;DHT22;9021;50.882;4.326;2023-09-30T03:49:41;14.50;99.90
17795;DHT22;9021;50.882;4.326;2023-09-30T03:52:07;14.50;99.90
17795;DHT22;9021;50.882;4.326;2023-09-30T03:54:34;14.50;99.90
17795;DHT22;9021;50.882;4.326;2023-09-30T03:56:59;14.50;99.90
17795;DHT22;9021;50.882;4.326;2023-09-30T03:59:25;14.50;99.90
17795;DHT22;9021;50.882;4.326;2023-09-30T04:01:52;14.50;99.90
17795;DHT22;9021;50.882;4.326;2023-09-30T04:04:19;14.50;99.90
17795;DHT22;9021;50.882;4.326;2023-09-30T04:06:44;14.40;99.90
17795;DHT22;9021;50.882;4.326;2023-09-30T04:09:15;14.40;99.90
17795;DHT22;9021;50.882;4.326;2023-09-30T04:11:41;14.40;99.90
17795;DHT22;9021;50.882;4.326;2023-09-30T04:14:07;14.40;99.90
17795;DHT22;9021;50.882;4.326;2023-09-30T04:16:33;14.20;99.90
17795;DHT22;9021;50.882;4.326;2023-09-30T04:18:59;14.10;99.90
17795;DHT22;9021;50.882;4.326;2023-09-30T04:21:25;14.10;99.90
17795;DHT22;9021;50.882;4.326;2023-09-30T04:23:53;14.20;99.90
17795;DHT22;9021;50.882;4.326;2023-09-30T04:26:19;14.20;99.90
17795;DHT22;9021;50.882;4.326;2023-09-30T04:28:45;14.30;99.90
17795;DHT22;9021;50.882;4.326;2023-09-30T04:31:10;14.20;99.90
17795;DHT22;9021;50.882;4.326;2023-09-30T04:33:37;14.20;99.90
17795;DHT22;9021;50.882;4.326;2023-09-30T04:36:03;14.30;99.90
17795;DHT22;9021;50.882;4.326;2023-09-30T04:38:30;14.20;99.90
17795;DHT22;9021;50.882;4.326;2023-09-30T04:40:56;14.10;99.90
17795;DHT22;9021;50.882;4.326;2023-09-30T04:43:23;14.20;99.90
17795;DHT22;9021;50.882;4.326;2023-09-30T04:45:48;14.20;99.90
17795;DHT22;9021;50.882;4.326;2023-09-30T04:48:18;14.20;99.90
17795;DHT22;9021;50.882;4.326;2023-09-30T04:50:43;14.30;99.90
17795;DHT22;9021;50.882;4.326;2023-09-30T04:53:08;14.20;99.90
17795;DHT22;9021;50.882;4.326;2023-09-30T04:55:34;14.20;99.90
17795;DHT22;9021;50.882;4.326;2023-09-30T04:58:00;14.20;99.90
17795;DHT22;9021;50.882;4.326;2023-09-30T05:00:25;14.20;99.90
17795;DHT22;9021;50.882;4.326;2023-09-30T05:02:51;14.20;99.90
17795;DHT22;9021;50.882;4.326;2023-09-30T05:05:18;14.20;99.90
17795;DHT22;9021;50.882;4.326;2023-09-30T05:07:43;14.20;99.90
17795;DHT22;9021;50.882;4.326;2023-09-30T05:10:10;14.20;99.90
17795;DHT22;9021;50.882;4.326;2023-09-30T05:12:38;14.20;99.90
17795;DHT22;9021;50.882;4.326;2023-09-30T05:15:04;14.20;99.90
17795;DHT22;9021;50.882;4.326;2023-09-30T05:17:31;14.10;99.90
17795;DHT22;9021;50.882;4.326;2023-09-30T05:19:57;14.10;99.90
17795;DHT22;9021;50.882;4.326;2023-09-30T05:22:23;14.20;99.90
17795;DHT22;9021;50.882;4.326;2023-09-30T05:24:53;14.20;99.90
17795;DHT22;9021;50.882;4.326;2023-09-30T05:27:19;14.10;99.90
17795;DHT22;9021;50.882;4.326;2023-09-30T05:29:44;14.00;99.90
17795;DHT22;9021;50.882;4.326;2023-09-30T05:32:13;14.00;99.90
17795;DHT22;9021;50.882;4.326;2023-09-30T05:34:39;14.10;99.90
17795;DHT22;9021;50.882;4.326;2023-09-30T05:37:05;14.10;99.90
17795;DHT22;9021;50.882;4.326;2023-09-30T05:39:30;14.10;99.90
17795;DHT22;9021;50.882;4.326;2023-09-30T05:41:57;14.10;99.90
17795;DHT22;9021;50.882;4.326;2023-09-30T05:44:23;14.20;99.90
17795;DHT22;9021;50.882;4.326;2023-09-30T05:46:49;14.20;99.90
17795;DHT22;9021;50.882;4.326;2023-09-30T05:49:15;14.20;99.90
17795;DHT22;9021;50.882;4.326;2023-09-30T05:51:41;14.20;99.90
17795;DHT22;9021;50.882;4.326;2023-09-30T05:54:06;14.20;99.90
17795;DHT22;9021;50.882;4.326;2023-09-30T05:56:38;14.20;99.90
17795;DHT22;9021;50.882;4.326;2023-09-30T05:59:04;14.50;99.90
17795;DHT22;9021;50.882;4.326;2023-09-30T06:04:47;14.40;99.90
17795;DHT22;9021;50.882;4.326;2023-09-30T06:07:12;14.40;99.90
17795;DHT22;9021;50.882;4.326;2023-09-30T06:09:38;14.50;99.90
17795;DHT22;9021;50.882;4.326;2023-09-30T06:12:04;14.50;99.90
17795;DHT22;9021;50.882;4.326;2023-09-30T06:14:32;14.50;99.90
17795;DHT22;9021;50.882;4.326;2023-09-30T06:16:57;14.50;99.90
17795;DHT22;9021;50.882;4.326;2023-09-30T06:19:23;14.60;99.90
17795;DHT22;9021;50.882;4.326;2023-09-30T06:21:51;14.50;99.90
17795;DHT22;9021;50.882;4.326;2023-09-30T06:24:17;14.60;99.90
17795;DHT22;9021;50.882;4.326;2023-09-30T06:26:45;14.60;99.90
17795;DHT22;9021;50.882;4.326;2023-09-30T06:29:11;14.80;99.90
17795;DHT22;9021;50.882;4.326;2023-09-30T06:31:37;14.90;99.90
17795;DHT22;9021;50.882;4.326;2023-09-30T06:34:02;14.90;99.90
17795;DHT22;9021;50.882;4.326;2023-09-30T06:36:29;14.90;99.90
17795;DHT22;9021;50.882;4.326;2023-09-30T06:38:58;14.90;99.90
17795;DHT22;9021;50.882;4.326;2023-09-30T06:41:27;14.90;99.90
17795;DHT22;9021;50.882;4.326;2023-09-30T06:43:55;15.00;99.90
17795;DHT22;9021;50.882;4.326;2023-09-30T06:46:22;15.00;99.90
17795;DHT22;9021;50.882;4.326;2023-09-30T06:48:49;15.20;99.90
17795;DHT22;9021;50.882;4.326;2023-09-30T06:51:17;15.30;99.90
17795;DHT22;9021;50.882;4.326;2023-09-30T06:53:43;15.50;99.90
17795;DHT22;9021;50.882;4.326;2023-09-30T06:56:11;15.50;99.90
17795;DHT22;9021;50.882;4.326;2023-09-30T06:58:40;15.60;99.90
17795;DHT22;9021;50.882;4.326;2023-09-30T07:01:06;15.80;99.90
17795;DHT22;9021;50.882;4.326;2023-09-30T07:03:32;15.90;99.90
17795;DHT22;9021;50.882;4.326;2023-09-30T07:05:58;15.90;99.90
17795;DHT22;9021;50.882;4.326;2023-09-30T07:08:27;16.00;99.90
17795;DHT22;9021;50.882;4.326;2023-09-30T07:10:54;18.40;99.90
17795;DHT22;9021;50.882;4.326;2023-09-30T07:13:19;16.50;99.90
17795;DHT22;9021;50.882;4.326;2023-09-30T07:15:46;16.90;99.90
17795;DHT22;9021;50.882;4.326;2023-09-30T07:18:11;17.30;99.90
17795;DHT22;9021;50.882;4.326;2023-09-30T07:20:37;17.60;99.90
17795;DHT22;9021;50.882;4.326;2023-09-30T07:23:03;18.10;99.90
17795;DHT22;9021;50.882;4.326;2023-09-30T07:25:29;18.80;99.90
17795;DHT22;9021;50.882;4.326;2023-09-30T07:28:00;19.50;99.90
17795;DHT22;9021;50.882;4.326;2023-09-30T07:30:26;19.90;99.90
17795;DHT22;9021;50.882;4.326;2023-09-30T07:32:52;19.90;99.90
17795;DHT22;9021;50.882;4.326;2023-09-30T07:35:17;19.90;99.90
17795;DHT22;9021;50.882;4.326;2023-09-30T07:37:43;19.80;99.90
17795;DHT22;9021;50.882;4.326;2023-09-30T07:40:09;19.50;99.90
17795;DHT22;9021;50.882;4.326;2023-09-30T07:42:35;19.30;99.90
17795;DHT22;9021;50.882;4.326;2023-09-30T07:45:01;18.90;99.90
17795;DHT22;9021;50.882;4.326;2023-09-30T07:47:29;19.00;99.90
17795;DHT22;9021;50.882;4.326;2023-09-30T07:49:55;18.70;99.90
17795;DHT22;9021;50.882;4.326;2023-09-30T07:52:21;18.50;99.90
17795;DHT22;9021;50.882;4.326;2023-09-30T07:54:47;18.40;99.90
17795;DHT22;9021;50.882;4.326;2023-09-30T07:57:13;18.30;99.90
17795;DHT22;9021;50.882;4.326;2023-09-30T07:59:38;17.90;99.90
17795;DHT22;9021;50.882;4.326;2023-09-30T08:02:04;18.00;99.90
17795;DHT22;9021;50.882;4.326;2023-09-30T08:04:30;18.20;99.90
17795;DHT22;9021;50.882;4.326;2023-09-30T08:06:56;18.20;99.90
17795;DHT22;9021;50.882;4.326;2023-09-30T08:09:21;18.20;99.90
17795;DHT22;9021;50.882;4.326;2023-09-30T08:11:49;18.10;99.90
17795;DHT22;9021;50.882;4.326;2023-09-30T08:14:16;18.20;99.90
17795;DHT22;9021;50.882;4.326;2023-09-30T08:16:41;18.40;99.90
17795;DHT22;9021;50.882;4.326;2023-09-30T08:19:08;18.40;99.90
17795;DHT22;9021;50.882;4.326;2023-09-30T08:21:34;18.40;99.90
17795;DHT22;9021;50.882;4.326;2023-09-30T08:24:00;18.40;99.90
17795;DHT22;9021;50.882;4.326;2023-09-30T08:26:26;18.40;99.90
17795;DHT22;9021;50.882;4.326;2023-09-30T08:28:51;18.50;99.90
17795;DHT22;9021;50.882;4.326;2023-09-30T08:31:17;18.50;99.90
17795;DHT22;9021;50.882;4.326;2023-09-30T08:33:42;18.40;99.90
17795;DHT22;9021;50.882;4.326;2023-09-30T08:36:10;18.30;99.90
17795;DHT22;9021;50.882;4.326;2023-09-30T08:38:39;18.20;99.90
17795;DHT22;9021;50.882;4.326;2023-09-30T08:41:06;18.40;99.90
17795;DHT22;9021;50.882;4.326;2023-09-30T08:43:37;18.00;99.90
17795;DHT22;9021;50.882;4.326;2023-09-30T08:46:03;18.50;99.90
17795;DHT22;9021;50.882;4.326;2023-09-30T08:48:30;18.50;99.90
17795;DHT22;9021;50.882;4.326;2023-09-30T08:50:58;18.40;99.90
17795;DHT22;9021;50.882;4.326;2023-09-30T08:53:24;18.40;99.90
17795;DHT22;9021;50.882;4.326;2023-09-30T08:55:53;18.40;99.90
17795;DHT22;9021;50.882;4.326;2023-09-30T08:58:19;18.40;99.90
17795;DHT22;9021;50.882;4.326;2023-09-30T09:00:45;18.40;99.90
17795;DHT22;9021;50.882;4.326;2023-09-30T09:03:11;18.40;99.90
17795;DHT22;9021;50.882;4.326;2023-09-30T09:05:36;18.50;99.90
17795;DHT22;9021;50.882;4.326;2023-09-30T09:08:02;18.50;99.90
17795;DHT22;9021;50.882;4.326;2023-09-30T09:10:28;18.60;99.90
17795;DHT22;9021;50.882;4.326;2023-09-30T09:12:57;18.60;99.90
17795;DHT22;9021;50.882;4.326;2023-09-30T09:15:27;18.50;99.90
17795;DHT22;9021;50.882;4.326;2023-09-30T09:17:54;18.40;99.90
17795;DHT22;9021;50.882;4.326;2023-09-30T09:20:21;18.40;99.90
17795;DHT22;9021;50.882;4.326;2023-09-30T09:22:48;18.50;99.90
17795;DHT22;9021;50.882;4.326;2023-09-30T09:25:16;18.40;99.90
17795;DHT22;9021;50.882;4.326;2023-09-30T09:27:42;18.50;99.90
17795;DHT22;9021;50.882;4.326;2023-09-30T09:30:14;18.60;99.90
17795;DHT22;9021;50.882;4.326;2023-09-30T09:32:50;18.80;99.90
17795;DHT22;9021;50.882;4.326;2023-09-30T09:35:19;15.50;99.90
17795;DHT22;9021;50.882;4.326;2023-09-30T09:37:48;18.90;99.90
17795;DHT22;9021;50.882;4.326;2023-09-30T09:40:22;18.90;99.90
17795;DHT22;9021;50.882;4.326;2023-09-30T09:42:48;18.70;99.90
17795;DHT22;9021;50.882;4.326;2023-09-30T09:45:15;18.80;99.90
17795;DHT22;9021;50.882;4.326;2023-09-30T09:47:42;18.80;99.90
17795;DHT22;9021;50.882;4.326;2023-09-30T09:50:07;18.80;99.90
17795;DHT22;9021;50.882;4.326;2023-09-30T09:52:34;18.90;99.90
17795;DHT22;9021;50.882;4.326;2023-09-30T09:54:59;19.00;99.90
17795;DHT22;9021;50.882;4.326;2023-09-30T09:57:26;19.10;99.90
17795;DHT22;9021;50.882;4.326;2023-09-30T09:59:52;19.10;99.90
17795;DHT22;9021;50.882;4.326;2023-09-30T10:02:19;19.20;99.90
17795;DHT22;9021;50.882;4.326;2023-09-30T10:04:45;19.30;99.90
17795;DHT22;9021;50.882;4.326;2023-09-30T10:07:12;19.30;99.90
17795;DHT22;9021;50.882;4.326;2023-09-30T10:09:40;19.40;99.90
17795;DHT22;9021;50.882;4.326;2023-09-30T10:12:06;19.60;99.90
17795;DHT22;9021;50.882;4.326;2023-09-30T10:14:34;19.80;99.90
17795;DHT22;9021;50.882;4.326;2023-09-30T10:17:01;20.10;99.90
17795;DHT22;9021;50.882;4.326;2023-09-30T10:19:26;20.30;99.90
17795;DHT22;9021;50.882;4.326;2023-09-30T10:24:39;20.20;99.90
17795;DHT22;9021;50.882;4.326;2023-09-30T10:29:53;20.00;99.90
17795;DHT22;9021;50.882;4.326;2023-09-30T10:32:19;20.10;99.90
17795;DHT22;9021;50.882;4.326;2023-09-30T10:34:48;20.10;99.90
17795;DHT22;9021;50.882;4.326;2023-09-30T10:37:23;20.30;99.90
17795;DHT22;9021;50.882;4.326;2023-09-30T10:39:59;20.40;99.90
17795;DHT22;9021;50.882;4.326;2023-09-30T10:45:41;20.90;99.90
17795;DHT22;9021;50.882;4.326;2023-09-30T10:47:55;21.30;99.90
17795;DHT22;9021;50.882;4.326;2023-09-30T10:53:05;21.60;99.90
17795;DHT22;9021;50.882;4.326;2023-09-30T10:55:32;21.80;99.90
17795;DHT22;9021;50.882;4.326;2023-09-30T10:57:58;22.00;99.90
17795;DHT22;9021;50.882;4.326;2023-09-30T11:00:23;22.20;99.90
17795;DHT22;9021;50.882;4.326;2023-09-30T11:02:52;22.50;99.90
17795;DHT22;9021;50.882;4.326;2023-09-30T11:05:18;22.70;99.90
17795;DHT22;9021;50.882;4.326;2023-09-30T11:07:48;22.80;99.90
17795;DHT22;9021;50.882;4.326;2023-09-30T11:10:17;22.90;99.90
17795;DHT22;9021;50.882;4.326;2023-09-30T11:12:57;22.80;99.90
17795;DHT22;9021;50.882;4.326;2023-09-30T11:15:23;23.00;99.90
17795;DHT22;9021;50.882;4.326;2023-09-30T11:17:49;23.80;99.90
17795;DHT22;9021;50.882;4.326;2023-09-30T11:20:18;24.90;99.90
17795;DHT22;9021;50.882;4.326;2023-09-30T11:22:47;26.20;98.80
17795;DHT22;9021;50.882;4.326;2023-09-30T11:25:16;27.30;97.40
17795;DHT22;9021;50.882;4.326;2023-09-30T11:27:43;27.70;96.30
17795;DHT22;9021;50.882;4.326;2023-09-30T11:30:08;29.30;95.20
17795;DHT22;9021;50.882;4.326;2023-09-30T11:32:34;29.40;94.50
17795;DHT22;9021;50.882;4.326;2023-09-30T11:35:00;30.50;93.80
17795;DHT22;9021;50.882;4.326;2023-09-30T11:37:32;30.80;92.80
17795;DHT22;9021;50.882;4.326;2023-09-30T11:40:10;31.50;92.10
17795;DHT22;9021;50.882;4.326;2023-09-30T11:42:36;32.40;90.60
17795;DHT22;9021;50.882;4.326;2023-09-30T11:45:02;33.10;90.40
17795;DHT22;9021;50.882;4.326;2023-09-30T11:47:28;33.70;88.70
17795;DHT22;9021;50.882;4.326;2023-09-30T11:49:55;33.80;86.80
17795;DHT22;9021;50.882;4.326;2023-09-30T11:52:26;34.10;86.30
17795;DHT22;9021;50.882;4.326;2023-09-30T11:54:52;34.20;84.60
17795;DHT22;9021;50.882;4.326;2023-09-30T11:57:18;34.30;83.90
17795;DHT22;9021;50.882;4.326;2023-09-30T11:59:46;34.90;84.70
17795;DHT22;9021;50.882;4.326;2023-09-30T12:02:16;35.30;82.10
17795;DHT22;9021;50.882;4.326;2023-09-30T12:04:45;33.30;82.70
17795;DHT22;9021;50.882;4.326;2023-09-30T12:07:12;31.30;84.60
17795;DHT22;9021;50.882;4.326;2023-09-30T12:09:38;31.30;84.60
17795;DHT22;9021;50.882;4.326;2023-09-30T12:12:04;31.80;83.40
17795;DHT22;9021;50.882;4.326;2023-09-30T12:14:30;31.70;83.30
17795;DHT22;9021;50.882;4.326;2023-09-30T12:16:56;31.50;83.00
17795;DHT22;9021;50.882;4.326;2023-09-30T12:19:22;33.90;81.60
17795;DHT22;9021;50.882;4.326;2023-09-30T12:21:47;34.20;80.20
17795;DHT22;9021;50.882;4.326;2023-09-30T12:24:25;34.90;79.90
17795;DHT22;9021;50.882;4.326;2023-09-30T12:26:52;35.10;78.80
17795;DHT22;9021;50.882;4.326;2023-09-30T12:29:18;34.50;79.40
17795;DHT22;9021;50.882;4.326;2023-09-30T12:31:47;34.10;80.70
17795;DHT22;9021;50.882;4.326;2023-09-30T12:34:13;33.70;79.70
17795;DHT22;9021;50.882;4.326;2023-09-30T12:36:39;32.90;80.80
17795;DHT22;9021;50.882;4.326;2023-09-30T12:39:05;32.10;81.20
17795;DHT22;9021;50.882;4.326;2023-09-30T12:41:42;30.80;82.80
17795;DHT22;9021;50.882;4.326;2023-09-30T12:44:08;29.80;84.10
17795;DHT22;9021;50.882;4.326;2023-09-30T12:46:34;29.10;84.80
17795;DHT22;9021;50.882;4.326;2023-09-30T12:49:05;28.70;83.20
17795;DHT22;9021;50.882;4.326;2023-09-30T12:51:30;28.80;84.00
17795;DHT22;9021;50.882;4.326;2023-09-30T12:53:56;28.90;83.60
17795;DHT22;9021;50.882;4.326;2023-09-30T12:56:23;29.30;84.00
17795;DHT22;9021;50.882;4.326;2023-09-30T12:58:49;29.50;84.70
17795;DHT22;9021;50.882;4.326;2023-09-30T13:01:14;29.60;86.20
17795;DHT22;9021;50.882;4.326;2023-09-30T13:03:41;30.10;84.90
17795;DHT22;9021;50.882;4.326;2023-09-30T13:06:06;30.50;87.00
17795;DHT22;9021;50.882;4.326;2023-09-30T13:08:32;30.60;85.30
17795;DHT22;9021;50.882;4.326;2023-09-30T13:11:02;30.70;84.60
17795;DHT22;9021;50.882;4.326;2023-09-30T13:13:28;30.50;84.30
17795;DHT22;9021;50.882;4.326;2023-09-30T13:15:56;30.30;83.00
17795;DHT22;9021;50.882;4.326;2023-09-30T13:18:22;29.70;82.90
17795;DHT22;9021;50.882;4.326;2023-09-30T13:20:47;29.70;83.40
17795;DHT22;9021;50.882;4.326;2023-09-30T13:23:13;30.50;83.90
17795;DHT22;9021;50.882;4.326;2023-09-30T13:25:38;29.90;81.50
17795;DHT22;9021;50.882;4.326;2023-09-30T13:28:04;29.80;82.40
17795;DHT22;9021;50.882;4.326;2023-09-30T13:30:29;29.90;82.20
17795;DHT22;9021;50.882;4.326;2023-09-30T13:32:55;29.60;81.00
17795;DHT22;9021;50.882;4.326;2023-09-30T13:35:21;29.60;81.70
17795;DHT22;9021;50.882;4.326;2023-09-30T13:37:46;29.50;82.80
17795;DHT22;9021;50.882;4.326;2023-09-30T13:40:12;29.50;83.30
17795;DHT22;9021;50.882;4.326;2023-09-30T13:42:38;29.40;85.50
17795;DHT22;9021;50.882;4.326;2023-09-30T13:45:04;29.20;85.60
17795;DHT22;9021;50.882;4.326;2023-09-30T13:47:31;29.20;83.90
17795;DHT22;9021;50.882;4.326;2023-09-30T13:49:58;28.90;85.40
17795;DHT22;9021;50.882;4.326;2023-09-30T13:52:23;28.70;85.00
17795;DHT22;9021;50.882;4.326;2023-09-30T13:54:49;28.50;85.40
17795;DHT22;9021;50.882;4.326;2023-09-30T13:57:14;28.30;86.40
17795;DHT22;9021;50.882;4.326;2023-09-30T13:59:40;28.10;86.60
17795;DHT22;9021;50.882;4.326;2023-09-30T14:02:07;27.80;86.40
17795;DHT22;9021;50.882;4.326;2023-09-30T14:04:32;27.30;87.80
17795;DHT22;9021;50.882;4.326;2023-09-30T14:07:01;27.20;86.50
17795;DHT22;9021;50.882;4.326;2023-09-30T14:09:28;27.10;87.10
17795;DHT22;9021;50.882;4.326;2023-09-30T14:11:53;27.40;87.90
17795;DHT22;9021;50.882;4.326;2023-09-30T14:14:19;27.30;87.90
17795;DHT22;9021;50.882;4.326;2023-09-30T14:16:45;27.40;88.90
17795;DHT22;9021;50.882;4.326;2023-09-30T14:19:10;27.10;87.40
17795;DHT22;9021;50.882;4.326;2023-09-30T14:21:36;27.10;87.30
17795;DHT22;9021;50.882;4.326;2023-09-30T14:24:01;26.80;87.30
17795;DHT22;9021;50.882;4.326;2023-09-30T14:26:29;26.90;87.90
17795;DHT22;9021;50.882;4.326;2023-09-30T14:28:55;26.90;87.70
17795;DHT22;9021;50.882;4.326;2023-09-30T14:31:21;26.80;87.00
17795;DHT22;9021;50.882;4.326;2023-09-30T14:33:46;26.50;87.20
17795;DHT22;9021;50.882;4.326;2023-09-30T14:36:12;26.20;88.00
17795;DHT22;9021;50.882;4.326;2023-09-30T14:38:37;26.00;87.20
17795;DHT22;9021;50.882;4.326;2023-09-30T14:41:06;25.50;88.40
17795;DHT22;9021;50.882;4.326;2023-09-30T14:43:31;25.00;89.10
17795;DHT22;9021;50.882;4.326;2023-09-30T14:45:57;24.90;90.30
17795;DHT22;9021;50.882;4.326;2023-09-30T14:48:25;25.10;90.30
17795;DHT22;9021;50.882;4.326;2023-09-30T14:50:51;25.20;90.40
17795;DHT22;9021;50.882;4.326;2023-09-30T14:53:17;24.90;89.50
17795;DHT22;9021;50.882;4.326;2023-09-30T14:55:44;24.60;90.20
17795;DHT22;9021;50.882;4.326;2023-09-30T14:58:10;24.50;90.10
17795;DHT22;9021;50.882;4.326;2023-09-30T15:00:35;24.50;90.10
17795;DHT22;9021;50.882;4.326;2023-09-30T15:03:01;24.50;90.70
17795;DHT22;9021;50.882;4.326;2023-09-30T15:05:27;24.50;90.60
17795;DHT22;9021;50.882;4.326;2023-09-30T15:07:52;24.50;91.50
17795;DHT22;9021;50.882;4.326;2023-09-30T15:10:18;24.30;90.90
17795;DHT22;9021;50.882;4.326;2023-09-30T15:12:44;24.20;91.10
17795;DHT22;9021;50.882;4.326;2023-09-30T15:15:10;24.10;91.30
17795;DHT22;9021;50.882;4.326;2023-09-30T15:17:36;24.00;91.30
17795;DHT22;9021;50.882;4.326;2023-09-30T15:20:01;23.90;91.60
17795;DHT22;9021;50.882;4.326;2023-09-30T15:22:27;23.90;91.40
17795;DHT22;9021;50.882;4.326;2023-09-30T15:24:52;23.90;91.70
17795;DHT22;9021;50.882;4.326;2023-09-30T15:27:18;23.80;91.80
17795;DHT22;9021;50.882;4.326;2023-09-30T15:29:44;23.70;91.30
17795;DHT22;9021;50.882;4.326;2023-09-30T15:32:09;23.60;91.40
17795;DHT22;9021;50.882;4.326;2023-09-30T15:34:35;23.60;91.70
17795;DHT22;9021;50.882;4.326;2023-09-30T15:37:03;23.50;91.50
17795;DHT22;9021;50.882;4.326;2023-09-30T15:39:31;23.30;91.40
17795;DHT22;9021;50.882;4.326;2023-09-30T15:42:01;23.20;91.70
17795;DHT22;9021;50.882;4.326;2023-09-30T15:44:27;23.00;92.10
17795;DHT22;9021;50.882;4.326;2023-09-30T15:46:52;23.10;92.40
17795;DHT22;9021;50.882;4.326;2023-09-30T15:49:18;26.60;93.40
17795;DHT22;9021;50.882;4.326;2023-09-30T15:51:44;22.90;92.50
17795;DHT22;9021;50.882;4.326;2023-09-30T15:54:09;22.90;92.70
17795;DHT22;9021;50.882;4.326;2023-09-30T15:56:35;23.00;92.80
17795;DHT22;9021;50.882;4.326;2023-09-30T15:59:00;22.90;92.70